sensor_id;sensor_type;location;lat;lon;timestamp;P1;durP1;ratioP1;P2;durP2;ratioP2
70199;SDS011;57587;55.688;37.600;2022-07-12T00:00:23;6.75;;;4.20;;
70199;SDS011;57587;55.688;37.600;2022-07-12T00:02:50;7.88;;;4.35;;
70199;SDS011;57587;55.688;37.600;2022-07-12T00:05:18;6.45;;;4.60;;
70199;SDS011;57587;55.688;37.600;2022-07-12T00:07:45;10.27;;;4.33;;
70199;SDS011;57587;55.688;37.600;2022-07-12T00:10:12;5.32;;;4.20;;
70199;SDS011;57587;55.688;37.600;2022-07-12T00:12:40;8.00;;;4.53;;
70199;SDS011;57587;55.688;37.600;2022-07-12T00:15:07;8.35;;;4.70;;
70199;SDS011;57587;55.688;37.600;2022-07-12T00:17:35;7.20;;;4.65;;
70199;SDS011;57587;55.688;37.600;2022-07-12T00:20:02;6.27;;;4.80;;
70199;SDS011;57587;55.688;37.600;2022-07-12T00:22:30;9.55;;;5.13;;
70199;SDS011;57587;55.688;37.600;2022-07-12T00:24:57;7.50;;;4.82;;
70199;SDS011;57587;55.688;37.600;2022-07-12T00:27:24;6.70;;;5.05;;
70199;SDS011;57587;55.688;37.600;2022-07-12T00:29:52;12.50;;;5.40;;
70199;SDS011;57587;55.688;37.600;2022-07-12T00:32:19;7.67;;;4.97;;
70199;SDS011;57587;55.688;37.600;2022-07-12T00:34:46;8.25;;;4.68;;
70199;SDS011;57587;55.688;37.600;2022-07-12T00:37:13;7.40;;;5.22;;
70199;SDS011;57587;55.688;37.600;2022-07-12T00:39:40;9.23;;;5.13;;
70199;SDS011;57587;55.688;37.600;2022-07-12T00:42:07;7.70;;;4.95;;
70199;SDS011;57587;55.688;37.600;2022-07-12T00:44:34;9.73;;;4.83;;
70199;SDS011;57587;55.688;37.600;2022-07-12T00:47:03;8.45;;;5.00;;
70199;SDS011;57587;55.688;37.600;2022-07-12T00:49:32;7.75;;;4.53;;
70199;SDS011;57587;55.688;37.600;2022-07-12T00:52:00;5.78;;;4.15;;
70199;SDS011;57587;55.688;37.600;2022-07-12T00:54:28;7.70;;;4.20;;
70199;SDS011;57587;55.688;37.600;2022-07-12T00:57:14;6.53;;;4.53;;
70199;SDS011;57587;55.688;37.600;2022-07-12T00:59:59;7.53;;;4.30;;
70199;SDS011;57587;55.688;37.600;2022-07-12T01:02:27;10.52;;;4.63;;
70199;SDS011;57587;55.688;37.600;2022-07-12T01:04:55;7.82;;;4.50;;
70199;SDS011;57587;55.688;37.600;2022-07-12T01:07:22;6.38;;;4.72;;
70199;SDS011;57587;55.688;37.600;2022-07-12T01:09:55;10.87;;;4.80;;
70199;SDS011;57587;55.688;37.600;2022-07-12T01:12:23;7.72;;;5.25;;
70199;SDS011;57587;55.688;37.600;2022-07-12T01:14:51;8.93;;;4.65;;
70199;SDS011;57587;55.688;37.600;2022-07-12T01:17:20;9.77;;;4.90;;
70199;SDS011;57587;55.688;37.600;2022-07-12T01:19:48;7.10;;;4.38;;
70199;SDS011;57587;55.688;37.600;2022-07-12T01:22:17;6.77;;;4.63;;
70199;SDS011;57587;55.688;37.600;2022-07-12T01:24:44;7.25;;;4.55;;
70199;SDS011;57587;55.688;37.600;2022-07-12T01:27:12;8.07;;;4.70;;
70199;SDS011;57587;55.688;37.600;2022-07-12T01:29:39;6.35;;;4.25;;
70199;SDS011;57587;55.688;37.600;2022-07-12T01:32:07;8.23;;;4.40;;
70199;SDS011;57587;55.688;37.600;2022-07-12T01:34:54;9.30;;;4.87;;
70199;SDS011;57587;55.688;37.600;2022-07-12T01:40:23;6.82;;;4.72;;
70199;SDS011;57587;55.688;37.600;2022-07-12T01:42:50;8.15;;;4.78;;
70199;SDS011;57587;55.688;37.600;2022-07-12T01:45:19;7.60;;;4.55;;
70199;SDS011;57587;55.688;37.600;2022-07-12T01:47:46;9.67;;;4.73;;
70199;SDS011;57587;55.688;37.600;2022-07-12T01:50:13;10.50;;;4.82;;
70199;SDS011;57587;55.688;37.600;2022-07-12T01:52:40;9.77;;;4.72;;
70199;SDS011;57587;55.688;37.600;2022-07-12T01:55:10;7.93;;;5.07;;
70199;SDS011;57587;55.688;37.600;2022-07-12T01:57:39;7.78;;;5.60;;
70199;SDS011;57587;55.688;37.600;2022-07-12T02:00:08;8.03;;;4.90;;
70199;SDS011;57587;55.688;37.600;2022-07-12T02:02:36;8.70;;;5.47;;
70199;SDS011;57587;55.688;37.600;2022-07-12T02:05:05;9.50;;;5.43;;
70199;SDS011;57587;55.688;37.600;2022-07-12T02:07:32;7.32;;;5.32;;
70199;SDS011;57587;55.688;37.600;2022-07-12T02:09:59;9.10;;;5.55;;
70199;SDS011;57587;55.688;37.600;2022-07-12T02:12:28;8.38;;;5.72;;
70199;SDS011;57587;55.688;37.600;2022-07-12T02:14:55;10.60;;;5.75;;
70199;SDS011;57587;55.688;37.600;2022-07-12T02:17:22;8.88;;;5.78;;
70199;SDS011;57587;55.688;37.600;2022-07-12T02:19:49;8.13;;;5.93;;
70199;SDS011;57587;55.688;37.600;2022-07-12T02:22:16;10.57;;;6.00;;
70199;SDS011;57587;55.688;37.600;2022-07-12T02:24:44;11.87;;;6.07;;
70199;SDS011;57587;55.688;37.600;2022-07-12T02:27:11;9.60;;;6.30;;
70199;SDS011;57587;55.688;37.600;2022-07-12T02:29:38;12.05;;;6.15;;
70199;SDS011;57587;55.688;37.600;2022-07-12T02:32:08;9.10;;;5.97;;
70199;SDS011;57587;55.688;37.600;2022-07-12T02:34:35;11.27;;;6.47;;
70199;SDS011;57587;55.688;37.600;2022-07-12T02:37:02;13.27;;;6.17;;
70199;SDS011;57587;55.688;37.600;2022-07-12T02:39:29;8.98;;;5.90;;
70199;SDS011;57587;55.688;37.600;2022-07-12T02:41:56;13.68;;;5.85;;
70199;SDS011;57587;55.688;37.600;2022-07-12T02:44:23;12.32;;;6.85;;
70199;SDS011;57587;55.688;37.600;2022-07-12T02:46:50;9.90;;;5.95;;
70199;SDS011;57587;55.688;37.600;2022-07-12T02:49:17;12.40;;;6.10;;
70199;SDS011;57587;55.688;37.600;2022-07-12T02:51:44;11.27;;;6.22;;
70199;SDS011;57587;55.688;37.600;2022-07-12T02:54:11;8.00;;;5.90;;
70199;SDS011;57587;55.688;37.600;2022-07-12T02:56:38;9.85;;;5.93;;
70199;SDS011;57587;55.688;37.600;2022-07-12T02:59:05;9.18;;;6.28;;
70199;SDS011;57587;55.688;37.600;2022-07-12T03:01:32;11.83;;;6.47;;
70199;SDS011;57587;55.688;37.600;2022-07-12T03:04:00;10.52;;;5.57;;
70199;SDS011;57587;55.688;37.600;2022-07-12T03:06:27;11.50;;;5.63;;
70199;SDS011;57587;55.688;37.600;2022-07-12T03:08:54;8.68;;;5.40;;
70199;SDS011;57587;55.688;37.600;2022-07-12T03:11:21;9.77;;;5.07;;
70199;SDS011;57587;55.688;37.600;2022-07-12T03:13:48;8.30;;;5.43;;
70199;SDS011;57587;55.688;37.600;2022-07-12T03:16:15;8.88;;;5.40;;
70199;SDS011;57587;55.688;37.600;2022-07-12T03:18:45;6.78;;;5.57;;
70199;SDS011;57587;55.688;37.600;2022-07-12T03:21:12;8.40;;;5.47;;
70199;SDS011;57587;55.688;37.600;2022-07-12T03:23:39;9.85;;;5.57;;
70199;SDS011;57587;55.688;37.600;2022-07-12T03:26:27;9.57;;;5.60;;
70199;SDS011;57587;55.688;37.600;2022-07-12T03:28:54;8.88;;;5.07;;
70199;SDS011;57587;55.688;37.600;2022-07-12T03:31:21;15.07;;;5.82;;
70199;SDS011;57587;55.688;37.600;2022-07-12T03:33:49;8.32;;;5.78;;
70199;SDS011;57587;55.688;37.600;2022-07-12T03:36:16;10.75;;;5.88;;
70199;SDS011;57587;55.688;37.600;2022-07-12T03:38:44;10.33;;;6.20;;
70199;SDS011;57587;55.688;37.600;2022-07-12T03:41:11;10.25;;;6.30;;
70199;SDS011;57587;55.688;37.600;2022-07-12T03:43:38;7.80;;;5.80;;
70199;SDS011;57587;55.688;37.600;2022-07-12T03:46:05;8.55;;;6.35;;
70199;SDS011;57587;55.688;37.600;2022-07-12T03:48:32;8.07;;;5.90;;
70199;SDS011;57587;55.688;37.600;2022-07-12T03:51:18;12.93;;;6.30;;
70199;SDS011;57587;55.688;37.600;2022-07-12T03:53:45;10.20;;;6.80;;
70199;SDS011;57587;55.688;37.600;2022-07-12T03:56:12;11.40;;;6.88;;
70199;SDS011;57587;55.688;37.600;2022-07-12T03:58:59;10.88;;;6.18;;
70199;SDS011;57587;55.688;37.600;2022-07-12T04:01:26;9.45;;;6.60;;
70199;SDS011;57587;55.688;37.600;2022-07-12T04:03:54;11.40;;;7.33;;
70199;SDS011;57587;55.688;37.600;2022-07-12T04:06:22;10.75;;;7.85;;
70199;SDS011;57587;55.688;37.600;2022-07-12T04:08:49;8.63;;;6.80;;
70199;SDS011;57587;55.688;37.600;2022-07-12T04:11:16;11.35;;;7.38;;
70199;SDS011;57587;55.688;37.600;2022-07-12T04:13:43;8.38;;;6.40;;
70199;SDS011;57587;55.688;37.600;2022-07-12T04:16:10;9.17;;;6.17;;
70199;SDS011;57587;55.688;37.600;2022-07-12T04:18:39;13.18;;;6.95;;
70199;SDS011;57587;55.688;37.600;2022-07-12T04:21:06;10.98;;;7.78;;
70199;SDS011;57587;55.688;37.600;2022-07-12T04:23:33;16.60;;;7.50;;
70199;SDS011;57587;55.688;37.600;2022-07-12T04:26:00;12.90;;;8.10;;
70199;SDS011;57587;55.688;37.600;2022-07-12T04:28:27;10.60;;;7.13;;
70199;SDS011;57587;55.688;37.600;2022-07-12T04:30:54;12.48;;;7.22;;
70199;SDS011;57587;55.688;37.600;2022-07-12T04:33:21;10.95;;;7.28;;
70199;SDS011;57587;55.688;37.600;2022-07-12T04:35:48;11.90;;;6.88;;
70199;SDS011;57587;55.688;37.600;2022-07-12T04:38:16;13.07;;;7.38;;
70199;SDS011;57587;55.688;37.600;2022-07-12T04:40:43;10.00;;;7.23;;
70199;SDS011;57587;55.688;37.600;2022-07-12T04:43:10;13.63;;;7.93;;
70199;SDS011;57587;55.688;37.600;2022-07-12T04:45:37;9.43;;;7.35;;
70199;SDS011;57587;55.688;37.600;2022-07-12T04:48:04;10.57;;;7.60;;
70199;SDS011;57587;55.688;37.600;2022-07-12T04:50:31;11.52;;;7.65;;
70199;SDS011;57587;55.688;37.600;2022-07-12T04:52:58;11.90;;;7.83;;
70199;SDS011;57587;55.688;37.600;2022-07-12T04:55:25;18.88;;;8.85;;
70199;SDS011;57587;55.688;37.600;2022-07-12T04:57:52;10.68;;;7.70;;
70199;SDS011;57587;55.688;37.600;2022-07-12T05:00:19;9.50;;;7.38;;
70199;SDS011;57587;55.688;37.600;2022-07-12T05:02:46;12.60;;;7.93;;
70199;SDS011;57587;55.688;37.600;2022-07-12T05:05:31;9.67;;;6.70;;
70199;SDS011;57587;55.688;37.600;2022-07-12T05:07:58;11.82;;;7.25;;
70199;SDS011;57587;55.688;37.600;2022-07-12T05:10:27;11.48;;;7.28;;
70199;SDS011;57587;55.688;37.600;2022-07-12T05:12:54;10.60;;;7.32;;
70199;SDS011;57587;55.688;37.600;2022-07-12T05:15:22;10.98;;;7.25;;
70199;SDS011;57587;55.688;37.600;2022-07-12T05:17:49;16.00;;;7.73;;
70199;SDS011;57587;55.688;37.600;2022-07-12T05:20:16;12.68;;;7.50;;
70199;SDS011;57587;55.688;37.600;2022-07-12T05:22:44;11.63;;;6.68;;
70199;SDS011;57587;55.688;37.600;2022-07-12T05:25:13;11.65;;;6.90;;
70199;SDS011;57587;55.688;37.600;2022-07-12T05:27:41;16.15;;;7.43;;
70199;SDS011;57587;55.688;37.600;2022-07-12T05:30:17;12.00;;;6.70;;
70199;SDS011;57587;55.688;37.600;2022-07-12T05:32:44;10.95;;;6.72;;
70199;SDS011;57587;55.688;37.600;2022-07-12T05:35:14;10.18;;;6.78;;
70199;SDS011;57587;55.688;37.600;2022-07-12T05:37:41;10.43;;;6.38;;
70199;SDS011;57587;55.688;37.600;2022-07-12T05:40:08;12.90;;;7.30;;
70199;SDS011;57587;55.688;37.600;2022-07-12T05:42:38;12.23;;;7.20;;
70199;SDS011;57587;55.688;37.600;2022-07-12T05:45:06;13.02;;;7.80;;
70199;SDS011;57587;55.688;37.600;2022-07-12T05:47:33;8.30;;;6.63;;
70199;SDS011;57587;55.688;37.600;2022-07-12T05:50:03;9.57;;;6.32;;
70199;SDS011;57587;55.688;37.600;2022-07-12T05:52:31;10.85;;;6.43;;
70199;SDS011;57587;55.688;37.600;2022-07-12T05:55:28;12.97;;;6.80;;
70199;SDS011;57587;55.688;37.600;2022-07-12T05:57:55;14.90;;;8.20;;
70199;SDS011;57587;55.688;37.600;2022-07-12T06:00:22;10.45;;;6.65;;
70199;SDS011;57587;55.688;37.600;2022-07-12T06:02:49;12.50;;;7.03;;
70199;SDS011;57587;55.688;37.600;2022-07-12T06:05:33;10.13;;;6.43;;
70199;SDS011;57587;55.688;37.600;2022-07-12T06:08:00;11.43;;;6.70;;
70199;SDS011;57587;55.688;37.600;2022-07-12T06:10:28;10.52;;;6.35;;
70199;SDS011;57587;55.688;37.600;2022-07-12T06:12:55;10.02;;;7.03;;
70199;SDS011;57587;55.688;37.600;2022-07-12T06:15:22;11.98;;;6.57;;
70199;SDS011;57587;55.688;37.600;2022-07-12T06:17:57;14.38;;;6.50;;
70199;SDS011;57587;55.688;37.600;2022-07-12T06:20:24;10.60;;;6.33;;
70199;SDS011;57587;55.688;37.600;2022-07-12T06:22:52;11.98;;;6.38;;
70199;SDS011;57587;55.688;37.600;2022-07-12T06:25:20;12.45;;;6.82;;
70199;SDS011;57587;55.688;37.600;2022-07-12T06:28:07;9.88;;;6.72;;
70199;SDS011;57587;55.688;37.600;2022-07-12T06:30:35;11.63;;;7.30;;
70199;SDS011;57587;55.688;37.600;2022-07-12T06:33:02;8.90;;;7.07;;
70199;SDS011;57587;55.688;37.600;2022-07-12T06:35:31;12.15;;;6.35;;
70199;SDS011;57587;55.688;37.600;2022-07-12T06:38:01;11.15;;;7.03;;
70199;SDS011;57587;55.688;37.600;2022-07-12T06:40:29;13.88;;;6.60;;
70199;SDS011;57587;55.688;37.600;2022-07-12T06:42:56;13.73;;;7.38;;
70199;SDS011;57587;55.688;37.600;2022-07-12T06:45:24;12.40;;;7.03;;
70199;SDS011;57587;55.688;37.600;2022-07-12T06:47:51;12.25;;;7.68;;
70199;SDS011;57587;55.688;37.600;2022-07-12T06:50:19;11.80;;;7.20;;
70199;SDS011;57587;55.688;37.600;2022-07-12T06:52:47;9.75;;;7.05;;
70199;SDS011;57587;55.688;37.600;2022-07-12T06:55:15;14.27;;;7.97;;
70199;SDS011;57587;55.688;37.600;2022-07-12T06:57:42;11.63;;;7.43;;
70199;SDS011;57587;55.688;37.600;2022-07-12T07:00:09;13.30;;;6.97;;
70199;SDS011;57587;55.688;37.600;2022-07-12T07:02:43;13.57;;;7.20;;
70199;SDS011;57587;55.688;37.600;2022-07-12T07:05:19;11.85;;;7.40;;
70199;SDS011;57587;55.688;37.600;2022-07-12T07:08:12;11.40;;;6.80;;
70199;SDS011;57587;55.688;37.600;2022-07-12T07:10:41;13.20;;;7.43;;
70199;SDS011;57587;55.688;37.600;2022-07-12T07:13:15;12.18;;;7.47;;
70199;SDS011;57587;55.688;37.600;2022-07-12T07:15:45;9.98;;;7.65;;
70199;SDS011;57587;55.688;37.600;2022-07-12T07:18:15;15.60;;;7.60;;
70199;SDS011;57587;55.688;37.600;2022-07-12T07:24:02;11.10;;;6.47;;
70199;SDS011;57587;55.688;37.600;2022-07-12T07:27:28;10.85;;;6.10;;
70199;SDS011;57587;55.688;37.600;2022-07-12T07:30:09;14.90;;;7.93;;
70199;SDS011;57587;55.688;37.600;2022-07-12T07:51:40;16.25;;;8.60;;
70199;SDS011;57587;55.688;37.600;2022-07-12T07:54:22;10.50;;;7.75;;
70199;SDS011;57587;55.688;37.600;2022-07-12T07:57:40;10.88;;;5.18;;
70199;SDS011;57587;55.688;37.600;2022-07-12T08:01:18;12.60;;;5.80;;
70199;SDS011;57587;55.688;37.600;2022-07-12T08:03:49;11.07;;;6.25;;
70199;SDS011;57587;55.688;37.600;2022-07-12T08:06:19;10.98;;;5.68;;
70199;SDS011;57587;55.688;37.600;2022-07-12T08:09:14;10.13;;;5.10;;
70199;SDS011;57587;55.688;37.600;2022-07-12T08:11:41;12.18;;;6.10;;
70199;SDS011;57587;55.688;37.600;2022-07-12T08:14:27;10.97;;;5.73;;
70199;SDS011;57587;55.688;37.600;2022-07-12T08:26:01;8.68;;;6.88;;
70199;SDS011;57587;55.688;37.600;2022-07-12T08:29:17;12.07;;;9.68;;
70199;SDS011;57587;55.688;37.600;2022-07-12T08:31:45;11.03;;;9.70;;
70199;SDS011;57587;55.688;37.600;2022-07-12T08:34:24;10.10;;;9.10;;
70199;SDS011;57587;55.688;37.600;2022-07-12T08:36:54;11.88;;;9.35;;
70199;SDS011;57587;55.688;37.600;2022-07-12T08:39:21;7.25;;;5.10;;
70199;SDS011;57587;55.688;37.600;2022-07-12T08:41:51;9.45;;;5.43;;
70199;SDS011;57587;55.688;37.600;2022-07-12T08:44:27;11.07;;;7.30;;
70199;SDS011;57587;55.688;37.600;2022-07-12T08:47:22;11.27;;;9.13;;
70199;SDS011;57587;55.688;37.600;2022-07-12T08:50:25;10.05;;;7.53;;
70199;SDS011;57587;55.688;37.600;2022-07-12T08:53:03;10.45;;;8.35;;
70199;SDS011;57587;55.688;37.600;2022-07-12T08:56:37;8.13;;;5.13;;
70199;SDS011;57587;55.688;37.600;2022-07-12T08:59:18;9.23;;;7.07;;
70199;SDS011;57587;55.688;37.600;2022-07-12T09:01:53;6.20;;;4.95;;
70199;SDS011;57587;55.688;37.600;2022-07-12T09:04:24;7.82;;;6.65;;
70199;SDS011;57587;55.688;37.600;2022-07-12T09:07:29;9.80;;;5.75;;
70199;SDS011;57587;55.688;37.600;2022-07-12T09:09:56;8.35;;;5.25;;
70199;SDS011;57587;55.688;37.600;2022-07-12T09:12:46;6.47;;;5.30;;
70199;SDS011;57587;55.688;37.600;2022-07-12T09:15:22;7.18;;;5.47;;
70199;SDS011;57587;55.688;37.600;2022-07-12T09:17:54;10.75;;;5.18;;
70199;SDS011;57587;55.688;37.600;2022-07-12T09:21:34;7.97;;;5.05;;
70199;SDS011;57587;55.688;37.600;2022-07-12T09:24:02;6.90;;;4.93;;
70199;SDS011;57587;55.688;37.600;2022-07-12T09:26:55;10.83;;;5.40;;
70199;SDS011;57587;55.688;37.600;2022-07-12T09:30:06;10.60;;;5.70;;
70199;SDS011;57587;55.688;37.600;2022-07-12T09:33:24;10.70;;;5.47;;
70199;SDS011;57587;55.688;37.600;2022-07-12T09:36:28;8.60;;;5.50;;
70199;SDS011;57587;55.688;37.600;2022-07-12T09:38:56;7.75;;;5.68;;
70199;SDS011;57587;55.688;37.600;2022-07-12T09:41:27;10.60;;;5.63;;
70199;SDS011;57587;55.688;37.600;2022-07-12T09:43:54;10.43;;;5.25;;
70199;SDS011;57587;55.688;37.600;2022-07-12T09:46:22;7.55;;;4.55;;
70199;SDS011;57587;55.688;37.600;2022-07-12T09:48:51;7.82;;;5.00;;
70199;SDS011;57587;55.688;37.600;2022-07-12T09:51:19;8.85;;;5.10;;
70199;SDS011;57587;55.688;37.600;2022-07-12T09:53:50;8.87;;;5.00;;
70199;SDS011;57587;55.688;37.600;2022-07-12T09:56:20;7.00;;;5.30;;
70199;SDS011;57587;55.688;37.600;2022-07-12T09:58:56;10.60;;;5.20;;
70199;SDS011;57587;55.688;37.600;2022-07-12T10:01:24;9.32;;;6.10;;
70199;SDS011;57587;55.688;37.600;2022-07-12T10:03:52;6.57;;;5.10;;
70199;SDS011;57587;55.688;37.600;2022-07-12T10:06:24;8.07;;;5.10;;
70199;SDS011;57587;55.688;37.600;2022-07-12T10:09:03;8.23;;;5.20;;
70199;SDS011;57587;55.688;37.600;2022-07-12T10:11:32;11.52;;;5.10;;
70199;SDS011;57587;55.688;37.600;2022-07-12T10:14:22;6.82;;;4.88;;
70199;SDS011;57587;55.688;37.600;2022-07-12T10:16:51;6.68;;;5.10;;
70199;SDS011;57587;55.688;37.600;2022-07-12T10:21:54;8.05;;;4.10;;
70199;SDS011;57587;55.688;37.600;2022-07-12T10:29:41;5.63;;;2.60;;
70199;SDS011;57587;55.688;37.600;2022-07-12T10:35:12;4.55;;;1.75;;
70199;SDS011;57587;55.688;37.600;2022-07-12T10:38:12;3.97;;;1.90;;
70199;SDS011;57587;55.688;37.600;2022-07-12T10:40:39;3.85;;;1.77;;
70199;SDS011;57587;55.688;37.600;2022-07-12T10:45:38;4.67;;;1.80;;
70199;SDS011;57587;55.688;37.600;2022-07-12T10:48:19;6.75;;;2.05;;
70199;SDS011;57587;55.688;37.600;2022-07-12T10:58:56;3.60;;;1.90;;
70199;SDS011;57587;55.688;37.600;2022-07-12T11:03:54;3.40;;;1.80;;
70199;SDS011;57587;55.688;37.600;2022-07-12T11:06:23;5.53;;;1.98;;
70199;SDS011;57587;55.688;37.600;2022-07-12T11:08:52;3.70;;;2.00;;
70199;SDS011;57587;55.688;37.600;2022-07-12T11:11:31;4.33;;;1.87;;
70199;SDS011;57587;55.688;37.600;2022-07-12T11:14:00;3.95;;;1.75;;
70199;SDS011;57587;55.688;37.600;2022-07-12T11:16:29;3.70;;;1.90;;
70199;SDS011;57587;55.688;37.600;2022-07-12T11:18:57;3.95;;;1.90;;
70199;SDS011;57587;55.688;37.600;2022-07-12T11:21:24;5.45;;;2.30;;
70199;SDS011;57587;55.688;37.600;2022-07-12T11:23:52;4.60;;;1.90;;
70199;SDS011;57587;55.688;37.600;2022-07-12T11:26:19;5.70;;;1.88;;
70199;SDS011;57587;55.688;37.600;2022-07-12T11:28:47;4.18;;;1.77;;
70199;SDS011;57587;55.688;37.600;2022-07-12T11:31:16;5.13;;;2.28;;
70199;SDS011;57587;55.688;37.600;2022-07-12T11:33:46;4.55;;;1.90;;
70199;SDS011;57587;55.688;37.600;2022-07-12T11:36:14;3.53;;;2.30;;
70199;SDS011;57587;55.688;37.600;2022-07-12T11:38:43;4.93;;;2.45;;
70199;SDS011;57587;55.688;37.600;2022-07-12T11:41:12;3.55;;;2.15;;
70199;SDS011;57587;55.688;37.600;2022-07-12T11:43:40;4.20;;;2.40;;
70199;SDS011;57587;55.688;37.600;2022-07-12T11:46:08;5.45;;;2.30;;
70199;SDS011;57587;55.688;37.600;2022-07-12T11:48:36;5.37;;;2.37;;
70199;SDS011;57587;55.688;37.600;2022-07-12T11:51:07;5.35;;;2.00;;
70199;SDS011;57587;55.688;37.600;2022-07-12T11:53:38;4.10;;;1.83;;
70199;SDS011;57587;55.688;37.600;2022-07-12T11:56:07;4.22;;;1.92;;
70199;SDS011;57587;55.688;37.600;2022-07-12T11:58:36;3.53;;;2.10;;
70199;SDS011;57587;55.688;37.600;2022-07-12T12:01:09;5.93;;;2.20;;
70199;SDS011;57587;55.688;37.600;2022-07-12T12:03:46;4.03;;;2.30;;
70199;SDS011;57587;55.688;37.600;2022-07-12T12:09:07;4.47;;;2.00;;
70199;SDS011;57587;55.688;37.600;2022-07-12T12:11:34;4.25;;;2.10;;
70199;SDS011;57587;55.688;37.600;2022-07-12T12:14:03;5.30;;;2.00;;
70199;SDS011;57587;55.688;37.600;2022-07-12T12:16:34;4.55;;;1.80;;
70199;SDS011;57587;55.688;37.600;2022-07-12T12:19:02;4.18;;;2.03;;
70199;SDS011;57587;55.688;37.600;2022-07-12T12:21:30;6.55;;;1.60;;
70199;SDS011;57587;55.688;37.600;2022-07-12T12:24:08;5.05;;;1.80;;
70199;SDS011;57587;55.688;37.600;2022-07-12T12:26:36;5.60;;;2.10;;
70199;SDS011;57587;55.688;37.600;2022-07-12T12:29:04;4.57;;;2.25;;
70199;SDS011;57587;55.688;37.600;2022-07-12T12:31:32;6.20;;;2.97;;
70199;SDS011;57587;55.688;37.600;2022-07-12T12:33:59;5.20;;;2.13;;
70199;SDS011;57587;55.688;37.600;2022-07-12T12:36:28;5.60;;;2.50;;
70199;SDS011;57587;55.688;37.600;2022-07-12T12:38:57;3.47;;;2.27;;
70199;SDS011;57587;55.688;37.600;2022-07-12T12:41:28;3.45;;;2.00;;
70199;SDS011;57587;55.688;37.600;2022-07-12T12:43:57;4.38;;;1.77;;
70199;SDS011;57587;55.688;37.600;2022-07-12T12:46:51;6.63;;;2.00;;
70199;SDS011;57587;55.688;37.600;2022-07-12T12:50:09;5.15;;;2.25;;
70199;SDS011;57587;55.688;37.600;2022-07-12T12:52:23;4.93;;;2.40;;
70199;SDS011;57587;55.688;37.600;2022-07-12T12:54:52;6.22;;;2.60;;
70199;SDS011;57587;55.688;37.600;2022-07-12T12:57:19;8.15;;;2.70;;
70199;SDS011;57587;55.688;37.600;2022-07-12T12:59:47;8.77;;;3.15;;
70199;SDS011;57587;55.688;37.600;2022-07-12T13:02:15;7.00;;;3.53;;
70199;SDS011;57587;55.688;37.600;2022-07-12T13:04:42;5.00;;;3.07;;
70199;SDS011;57587;55.688;37.600;2022-07-12T13:07:12;7.60;;;3.10;;
70199;SDS011;57587;55.688;37.600;2022-07-12T13:09:40;8.57;;;3.20;;
70199;SDS011;57587;55.688;37.600;2022-07-12T13:12:09;5.43;;;3.20;;
70199;SDS011;57587;55.688;37.600;2022-07-12T13:14:37;6.45;;;3.10;;
70199;SDS011;57587;55.688;37.600;2022-07-12T13:17:04;6.40;;;3.27;;
70199;SDS011;57587;55.688;37.600;2022-07-12T13:19:31;5.80;;;3.20;;
70199;SDS011;57587;55.688;37.600;2022-07-12T13:21:59;6.57;;;3.00;;
70199;SDS011;57587;55.688;37.600;2022-07-12T13:24:26;5.45;;;2.65;;
70199;SDS011;57587;55.688;37.600;2022-07-12T13:26:53;6.15;;;2.90;;
70199;SDS011;57587;55.688;37.600;2022-07-12T13:29:21;5.63;;;3.07;;
70199;SDS011;57587;55.688;37.600;2022-07-12T13:31:48;8.70;;;3.03;;
70199;SDS011;57587;55.688;37.600;2022-07-12T13:34:22;7.70;;;2.53;;
70199;SDS011;57587;55.688;37.600;2022-07-12T13:36:51;6.20;;;2.80;;
70199;SDS011;57587;55.688;37.600;2022-07-12T13:39:19;4.43;;;2.50;;
70199;SDS011;57587;55.688;37.600;2022-07-12T13:42:04;4.73;;;2.27;;
70199;SDS011;57587;55.688;37.600;2022-07-12T13:44:32;4.95;;;2.13;;
70199;SDS011;57587;55.688;37.600;2022-07-12T13:46:59;3.75;;;2.20;;
70199;SDS011;57587;55.688;37.600;2022-07-12T13:49:27;3.90;;;2.50;;
70199;SDS011;57587;55.688;37.600;2022-07-12T13:51:54;3.75;;;2.15;;
70199;SDS011;57587;55.688;37.600;2022-07-12T13:54:21;8.90;;;2.80;;
70199;SDS011;57587;55.688;37.600;2022-07-12T13:56:48;6.50;;;2.92;;
70199;SDS011;57587;55.688;37.600;2022-07-12T13:59:15;6.43;;;2.40;;
70199;SDS011;57587;55.688;37.600;2022-07-12T14:01:42;4.03;;;2.55;;
70199;SDS011;57587;55.688;37.600;2022-07-12T14:04:10;6.97;;;2.75;;
70199;SDS011;57587;55.688;37.600;2022-07-12T14:06:37;6.10;;;2.50;;
70199;SDS011;57587;55.688;37.600;2022-07-12T14:09:04;4.55;;;2.65;;
70199;SDS011;57587;55.688;37.600;2022-07-12T14:11:34;5.15;;;2.75;;
70199;SDS011;57587;55.688;37.600;2022-07-12T14:14:01;5.53;;;2.40;;
70199;SDS011;57587;55.688;37.600;2022-07-12T14:16:29;5.95;;;2.60;;
70199;SDS011;57587;55.688;37.600;2022-07-12T14:18:59;4.40;;;2.50;;
70199;SDS011;57587;55.688;37.600;2022-07-12T14:21:28;7.53;;;3.00;;
70199;SDS011;57587;55.688;37.600;2022-07-12T14:23:57;5.88;;;2.97;;
70199;SDS011;57587;55.688;37.600;2022-07-12T14:26:27;5.72;;;2.72;;
70199;SDS011;57587;55.688;37.600;2022-07-12T14:28:55;4.13;;;2.55;;
70199;SDS011;57587;55.688;37.600;2022-07-12T14:31:22;4.20;;;2.70;;
70199;SDS011;57587;55.688;37.600;2022-07-12T14:33:51;5.28;;;3.15;;
70199;SDS011;57587;55.688;37.600;2022-07-12T14:36:18;5.93;;;3.10;;
70199;SDS011;57587;55.688;37.600;2022-07-12T14:38:48;4.40;;;2.75;;
70199;SDS011;57587;55.688;37.600;2022-07-12T14:41:19;5.20;;;2.80;;
70199;SDS011;57587;55.688;37.600;2022-07-12T14:43:47;6.27;;;2.60;;
70199;SDS011;57587;55.688;37.600;2022-07-12T14:46:16;7.28;;;3.00;;
70199;SDS011;57587;55.688;37.600;2022-07-12T14:48:43;3.92;;;2.70;;
70199;SDS011;57587;55.688;37.600;2022-07-12T14:51:10;5.93;;;2.75;;
70199;SDS011;57587;55.688;37.600;2022-07-12T14:53:38;4.78;;;3.17;;
70199;SDS011;57587;55.688;37.600;2022-07-12T14:56:05;4.60;;;2.60;;
70199;SDS011;57587;55.688;37.600;2022-07-12T14:58:32;5.70;;;3.10;;
70199;SDS011;57587;55.688;37.600;2022-07-12T15:00:59;5.28;;;2.60;;
70199;SDS011;57587;55.688;37.600;2022-07-12T15:03:26;5.65;;;3.00;;
70199;SDS011;57587;55.688;37.600;2022-07-12T15:05:54;4.60;;;2.65;;
70199;SDS011;57587;55.688;37.600;2022-07-12T15:08:23;7.63;;;2.77;;
70199;SDS011;57587;55.688;37.600;2022-07-12T15:10:50;7.55;;;2.88;;
70199;SDS011;57587;55.688;37.600;2022-07-12T15:13:17;4.43;;;2.50;;
70199;SDS011;57587;55.688;37.600;2022-07-12T15:15:45;4.95;;;2.70;;
70199;SDS011;57587;55.688;37.600;2022-07-12T15:18:12;5.30;;;2.70;;
70199;SDS011;57587;55.688;37.600;2022-07-12T15:20:39;5.13;;;2.80;;
70199;SDS011;57587;55.688;37.600;2022-07-12T15:23:11;4.10;;;2.67;;
70199;SDS011;57587;55.688;37.600;2022-07-12T15:25:39;7.35;;;2.95;;
70199;SDS011;57587;55.688;37.600;2022-07-12T15:28:08;4.80;;;2.70;;
70199;SDS011;57587;55.688;37.600;2022-07-12T15:30:35;4.53;;;2.90;;
70199;SDS011;57587;55.688;37.600;2022-07-12T15:33:03;6.63;;;2.90;;
70199;SDS011;57587;55.688;37.600;2022-07-12T15:35:30;4.43;;;2.55;;
70199;SDS011;57587;55.688;37.600;2022-07-12T15:37:57;7.40;;;2.72;;
70199;SDS011;57587;55.688;37.600;2022-07-12T15:40:24;4.20;;;2.70;;
70199;SDS011;57587;55.688;37.600;2022-07-12T15:42:52;6.03;;;2.90;;
70199;SDS011;57587;55.688;37.600;2022-07-12T15:45:19;6.20;;;2.67;;
70199;SDS011;57587;55.688;37.600;2022-07-12T15:47:47;5.55;;;2.60;;
70199;SDS011;57587;55.688;37.600;2022-07-12T15:50:15;4.00;;;2.60;;
70199;SDS011;57587;55.688;37.600;2022-07-12T15:52:45;6.85;;;2.83;;
70199;SDS011;57587;55.688;37.600;2022-07-12T15:55:31;3.97;;;2.80;;